Time;durP1;ratioP1;P1;durP2;ratioP2;P2;SDS_P1;SDS_P2;PMS_P1;PMS_P2;Temp;Humidity;BMP_temperature;BMP_pressure;BME280_temperature;BME280_humidity;BME280_pressure;Samples;Min_cycle;Max_cycle;Signal;HPM_P1;HPM_P2
2021/12/21 00:00:12;;;;;;;13.75;9.55;;;-0.20;99.90;;;;;;4988935;28;20556;-74
2021/12/21 00:02:40;;;;;;;13.43;8.85;;;-0.20;99.90;;;;;;4990268;28;20207;-74
2021/12/21 00:05:08;;;;;;;16.08;8.80;;;-0.20;99.90;;;;;;4989888;28;20558;-75
2021/12/21 00:07:35;;;;;;;13.30;8.40;;;-0.20;99.90;;;;;;4989475;28;20250;-75
2021/12/21 00:10:04;;;;;;;11.70;8.57;;;-0.10;99.90;;;;;;4990458;28;20238;-74
2021/12/21 00:12:33;;;;;;;12.48;9.15;;;-0.10;99.90;;;;;;4988843;28;20647;-74
2021/12/21 00:15:04;;;;;;;11.00;8.30;;;-0.10;99.90;;;;;;4986985;28;20289;-75
2021/12/21 00:17:47;;;;;;;13.57;8.75;;;-0.10;99.90;;;;;;4991633;28;20232;-75
2021/12/21 00:20:28;;;;;;;15.07;8.68;;;-0.10;99.90;;;;;;4993004;28;20227;-74
2021/12/21 00:25:37;;;;;;;9.57;8.07;;;-0.10;99.90;;;;;;4990905;28;20278;-74
2021/12/21 00:28:05;;;;;;;10.55;7.65;;;-0.10;99.90;;;;;;4992423;28;20195;-75
2021/12/21 00:30:32;;;;;;;12.02;8.07;;;-0.10;99.90;;;;;;4995503;28;20207;-74
2021/12/21 00:32:59;;;;;;;9.20;6.53;;;-0.10;99.90;;;;;;4990091;28;20203;-74
2021/12/21 00:35:26;;;;;;;13.02;8.48;;;-0.10;99.90;;;;;;4991135;28;20203;-74
2021/12/21 00:37:54;;;;;;;10.45;7.68;;;-0.10;99.90;;;;;;4990130;28;20191;-74
2021/12/21 00:40:20;;;;;;;11.40;7.45;;;-0.10;99.90;;;;;;4988601;28;20216;-74
2021/12/21 00:42:49;;;;;;;12.05;7.75;;;-0.10;99.90;;;;;;4993040;28;20249;-74
2021/12/21 00:45:15;;;;;;;13.07;7.70;;;-0.10;99.90;;;;;;4992773;28;20195;-75
2021/12/21 00:47:47;;;;;;;14.95;8.25;;;-0.10;99.90;;;;;;4989785;28;20191;-75
2021/12/21 00:50:17;;;;;;;11.27;8.13;;;-0.10;99.90;;;;;;4988735;28;20266;-75
2021/12/21 00:52:48;;;;;;;10.60;8.70;;;-0.10;99.90;;;;;;4988272;28;20220;-75
2021/12/21 00:55:16;;;;;;;9.27;7.65;;;-0.10;99.90;;;;;;4990037;28;20298;-75
2021/12/21 00:57:43;;;;;;;12.85;8.57;;;-0.20;99.90;;;;;;4993109;28;20187;-75
2021/12/21 01:00:13;;;;;;;10.43;8.07;;;-0.20;99.90;;;;;;4995081;28;20226;-74
2021/12/21 01:02:41;;;;;;;11.40;7.47;;;-0.20;99.90;;;;;;4991883;28;20634;-74
2021/12/21 01:05:16;;;;;;;10.38;8.05;;;-0.30;99.90;;;;;;4988980;28;20199;-75
2021/12/21 01:07:47;;;;;;;11.75;7.35;;;-0.30;99.90;;;;;;4992342;28;20195;-74
2021/12/21 01:13:27;;;;;;;11.00;7.65;;;-0.30;99.90;;;;;;4926089;29;20209;-74
2021/12/21 01:16:06;;;;;;;13.23;7.25;;;-0.30;99.90;;;;;;4931910;29;20197;-74
2021/12/21 01:18:38;;;;;;;9.45;7.22;;;-0.30;99.90;;;;;;4962203;28;20211;-75
2021/12/21 01:21:11;;;;;;;11.82;7.47;;;-0.30;99.90;;;;;;4992467;28;20188;-74
2021/12/21 01:23:59;;;;;;;10.65;7.20;;;-0.30;99.90;;;;;;4989722;28;20234;-74
2021/12/21 01:26:34;;;;;;;11.60;7.68;;;-0.30;99.90;;;;;;4989580;28;20191;-75
2021/12/21 01:29:10;;;;;;;12.77;7.20;;;-0.30;99.90;;;;;;4992716;28;20306;-74
2021/12/21 01:31:47;;;;;;;9.60;8.43;;;-0.30;99.90;;;;;;4989360;28;20198;-73
2021/12/21 01:34:26;;;;;;;13.02;8.02;;;-0.30;99.90;;;;;;4992180;28;20581;-74
2021/12/21 01:36:59;;;;;;;9.95;6.82;;;-0.30;99.90;;;;;;4989346;28;20242;-74
2021/12/21 01:39:52;;;;;;;12.38;7.60;;;-0.30;99.90;;;;;;4989351;28;20249;-75
2021/12/21 01:42:28;;;;;;;11.50;8.00;;;-0.30;99.90;;;;;;4988959;28;20206;-74
2021/12/21 01:50:26;;;;;;;14.02;8.25;;;-0.20;99.90;;;;;;4989232;28;20211;-74
2021/12/21 01:52:53;;;;;;;20.40;8.82;;;-0.20;99.90;;;;;;4992378;28;20253;-74
2021/12/21 01:55:20;;;;;;;10.80;8.32;;;-0.30;99.90;;;;;;4990675;28;20215;-74
2021/12/21 01:57:47;;;;;;;12.70;8.05;;;-0.30;99.90;;;;;;4991707;28;20195;-75
2021/12/21 02:00:15;;;;;;;10.20;8.80;;;-0.30;99.90;;;;;;4991680;28;20215;-74
2021/12/21 02:02:43;;;;;;;11.25;7.28;;;-0.30;99.90;;;;;;4988465;28;20222;-74
2021/12/21 02:05:11;;;;;;;10.48;8.80;;;-0.30;99.90;;;;;;4992042;28;20203;-74
2021/12/21 02:07:38;;;;;;;12.80;8.60;;;-0.40;99.90;;;;;;4991678;28;20198;-75
2021/12/21 02:10:05;;;;;;;9.43;8.18;;;-0.30;99.90;;;;;;4991096;28;20265;-74
2021/12/21 02:12:33;;;;;;;11.50;8.35;;;-0.30;99.90;;;;;;4991407;28;20199;-75
2021/12/21 02:15:00;;;;;;;11.30;8.52;;;-0.30;99.90;;;;;;4992462;28;20220;-74
2021/12/21 02:18:13;;;;;;;11.23;8.75;;;-0.40;99.90;;;;;;4992186;28;20191;-74
2021/12/21 02:20:46;;;;;;;11.43;8.95;;;-0.40;99.90;;;;;;4981553;28;20191;-74
2021/12/21 02:23:17;;;;;;;11.77;8.73;;;-0.40;99.90;;;;;;4992703;28;20627;-75
2021/12/21 02:26:07;;;;;;;11.93;8.60;;;-0.40;99.90;;;;;;4995930;28;20258;-74
2021/12/21 02:29:10;;;;;;;10.63;8.63;;;-0.40;99.90;;;;;;4984218;28;20212;-74
2021/12/21 02:31:39;;;;;;;11.15;8.80;;;-0.40;99.90;;;;;;4990738;28;20191;-74
2021/12/21 02:34:07;;;;;;;13.43;8.77;;;-0.40;99.90;;;;;;4999415;28;20325;-74
2021/12/21 02:36:36;;;;;;;12.73;9.10;;;-0.40;99.90;;;;;;4985661;28;20199;-74
2021/12/21 02:39:06;;;;;;;8.82;7.90;;;-0.40;99.90;;;;;;4988816;28;20331;-74
2021/12/21 02:41:33;;;;;;;9.65;8.32;;;-0.40;99.90;;;;;;4983274;28;20191;-74
2021/12/21 02:43:59;;;;;;;9.75;7.65;;;-0.40;99.90;;;;;;4988793;28;20552;-74
2021/12/21 02:46:26;;;;;;;8.93;7.75;;;-0.40;99.90;;;;;;4988795;28;20281;-74
2021/12/21 02:48:54;;;;;;;11.85;7.13;;;-0.40;99.90;;;;;;4989507;28;20698;-74
2021/12/21 02:51:22;;;;;;;8.80;6.63;;;-0.40;99.90;;;;;;4990859;28;20222;-74
2021/12/21 02:53:51;;;;;;;12.55;7.25;;;-0.40;99.90;;;;;;4990835;28;20194;-74
2021/12/21 02:56:18;;;;;;;10.68;7.60;;;-0.40;99.90;;;;;;4991187;28;20299;-74
2021/12/21 02:58:45;;;;;;;9.30;6.70;;;-0.40;99.90;;;;;;4990957;28;20265;-74
2021/12/21 03:01:13;;;;;;;10.30;7.30;;;-0.40;99.90;;;;;;4990697;28;20196;-74
2021/12/21 03:03:40;;;;;;;11.48;7.53;;;-0.50;99.90;;;;;;4983699;28;20338;-75
2021/12/21 03:06:13;;;;;;;10.43;6.88;;;-0.50;99.90;;;;;;4990956;28;20230;-74
2021/12/21 03:08:41;;;;;;;13.00;6.85;;;-0.50;99.90;;;;;;4990248;28;20322;-74
2021/12/21 03:11:17;;;;;;;10.60;6.93;;;-0.50;99.90;;;;;;4990533;28;20191;-74
2021/12/21 03:14:04;;;;;;;10.35;7.80;;;-0.60;99.90;;;;;;4981705;28;20188;-74
2021/12/21 03:16:36;;;;;;;10.95;6.30;;;-0.60;99.90;;;;;;4989565;28;20294;-74
2021/12/21 03:19:04;;;;;;;10.82;6.75;;;-0.60;99.90;;;;;;4990741;28;20211;-74
2021/12/21 03:21:32;;;;;;;9.07;6.38;;;-0.60;99.90;;;;;;4990754;28;20205;-75
2021/12/21 03:23:59;;;;;;;8.43;5.78;;;-0.60;99.90;;;;;;4990697;28;20203;-75
2021/12/21 03:26:28;;;;;;;10.25;7.13;;;-0.60;99.90;;;;;;4990427;28;20697;-74
2021/12/21 03:28:56;;;;;;;9.27;6.65;;;-0.60;99.90;;;;;;4984349;28;20618;-74
2021/12/21 03:31:23;;;;;;;8.27;6.40;;;-0.70;99.90;;;;;;4983076;28;20586;-75
2021/12/21 03:33:51;;;;;;;11.23;6.20;;;-0.70;99.90;;;;;;4990666;28;20302;-75
2021/12/21 03:36:19;;;;;;;10.25;5.90;;;-0.70;99.90;;;;;;4983970;28;20284;-74
2021/12/21 03:38:53;;;;;;;9.98;7.03;;;-0.70;99.90;;;;;;4989114;28;20215;-75
2021/12/21 03:41:21;;;;;;;8.55;6.40;;;-0.70;99.90;;;;;;4988614;28;20203;-74
2021/12/21 03:43:49;;;;;;;10.20;6.75;;;-0.70;99.90;;;;;;4989657;28;20199;-75
2021/12/21 03:46:16;;;;;;;11.27;7.55;;;-0.80;99.90;;;;;;4991062;28;20318;-75
2021/12/21 03:48:46;;;;;;;8.88;6.55;;;-0.80;99.90;;;;;;4989710;28;20215;-74
2021/12/21 03:51:14;;;;;;;7.95;6.20;;;-0.80;99.90;;;;;;4990428;28;20526;-75
2021/12/21 03:53:42;;;;;;;11.43;6.43;;;-0.80;99.90;;;;;;4994271;28;20191;-74
2021/12/21 03:59:04;;;;;;;10.68;7.28;;;-0.90;99.90;;;;;;5064182;27;20584;-73
2021/12/21 04:01:31;;;;;;;8.48;6.70;;;-0.90;99.90;;;;;;5046962;28;20193;-73
2021/12/21 04:03:58;;;;;;;9.80;6.38;;;-0.90;99.90;;;;;;5043707;28;20197;-73
2021/12/21 04:06:25;;;;;;;9.25;6.78;;;-0.90;99.90;;;;;;5043343;28;20200;-73
2021/12/21 04:08:52;;;;;;;10.60;6.95;;;-0.80;99.90;;;;;;5053969;28;20282;-73
2021/12/21 04:11:19;;;;;;;9.43;6.40;;;-0.80;99.90;;;;;;5047350;28;20186;-73
2021/12/21 04:13:46;;;;;;;10.18;6.53;;;-0.80;99.90;;;;;;5045601;28;20189;-73
2021/12/21 04:16:15;;;;;;;11.23;7.22;;;-0.80;99.90;;;;;;5047940;28;20288;-73
2021/12/21 04:18:41;;;;;;;11.50;6.80;;;-0.80;99.90;;;;;;5053870;28;20220;-73
2021/12/21 04:21:12;;;;;;;9.82;6.85;;;-0.80;99.90;;;;;;5047391;28;20189;-73
2021/12/21 04:23:40;;;;;;;8.20;7.30;;;-0.80;99.90;;;;;;5046816;28;20189;-73
2021/12/21 04:26:07;;;;;;;10.38;7.10;;;-0.80;99.90;;;;;;5046723;28;20293;-73
2021/12/21 04:28:34;;;;;;;8.57;7.35;;;-0.80;99.90;;;;;;5054214;28;20209;-73
2021/12/21 04:31:02;;;;;;;8.77;6.60;;;-0.90;99.90;;;;;;5046747;28;20194;-73
2021/12/21 04:33:30;;;;;;;13.00;7.80;;;-0.90;99.90;;;;;;5047184;28;20276;-74
2021/12/21 04:35:58;;;;;;;9.45;7.20;;;-0.90;99.90;;;;;;5046296;28;20204;-73
2021/12/21 04:38:29;;;;;;;8.32;7.38;;;-0.90;99.90;;;;;;5054233;28;20307;-73
2021/12/21 04:41:02;;;;;;;8.73;6.85;;;-0.90;99.90;;;;;;5046178;28;20193;-73
2021/12/21 04:43:29;;;;;;;11.55;8.05;;;-1.00;99.90;;;;;;5046424;28;20243;-74
2021/12/21 04:45:56;;;;;;;14.70;7.95;;;-1.00;99.90;;;;;;5046950;28;20207;-73
2021/12/21 04:48:23;;;;;;;9.10;6.47;;;-1.00;99.90;;;;;;5053021;28;20296;-73
2021/12/21 04:50:51;;;;;;;16.92;7.82;;;-1.10;99.90;;;;;;5046460;28;20194;-73
2021/12/21 04:53:18;;;;;;;11.88;7.30;;;-1.10;99.90;;;;;;5046643;28;20597;-73
2021/12/21 04:55:45;;;;;;;10.48;6.88;;;-1.20;99.90;;;;;;5046202;28;20197;-73
2021/12/21 04:58:12;;;;;;;13.63;7.97;;;-1.20;99.90;;;;;;5054250;28;20229;-73
2021/12/21 05:00:40;;;;;;;9.07;7.20;;;-1.30;99.90;;;;;;5046188;28;20193;-73
2021/12/21 05:03:07;;;;;;;13.35;7.85;;;-1.30;99.90;;;;;;5046518;28;20209;-73
2021/12/21 05:05:34;;;;;;;10.23;8.13;;;-1.30;99.90;;;;;;5042985;28;20204;-73
2021/12/21 05:08:08;;;;;;;10.13;8.13;;;-1.30;99.90;;;;;;5041078;28;20195;-74
2021/12/21 05:10:43;;;;;;;14.55;9.00;;;-1.30;99.90;;;;;;5032583;28;20285;-73
2021/12/21 05:13:10;;;;;;;11.07;7.63;;;-1.40;99.90;;;;;;5032634;28;20587;-73
2021/12/21 05:15:37;;;;;;;10.45;7.72;;;-1.40;99.90;;;;;;5032690;28;20194;-73
2021/12/21 05:18:04;;;;;;;8.48;7.57;;;-1.40;99.90;;;;;;5032865;28;20360;-73
2021/12/21 05:20:31;;;;;;;12.38;7.93;;;-1.40;99.90;;;;;;5032825;28;20336;-73
2021/12/21 05:22:58;;;;;;;10.20;8.45;;;-1.30;99.90;;;;;;5033135;28;20204;-74
2021/12/21 05:25:26;;;;;;;9.60;7.28;;;-1.30;99.90;;;;;;5030138;28;20198;-73
2021/12/21 05:27:53;;;;;;;8.63;7.43;;;-1.30;99.90;;;;;;5036717;28;20365;-73
2021/12/21 05:30:22;;;;;;;12.27;8.02;;;-1.40;99.90;;;;;;5030506;28;20205;-74
2021/12/21 05:32:49;;;;;;;10.98;8.10;;;-1.50;99.90;;;;;;5032472;28;20202;-73
2021/12/21 05:35:17;;;;;;;11.10;7.75;;;-1.60;99.90;;;;;;5035140;28;20272;-73
2021/12/21 05:37:45;;;;;;;11.25;7.90;;;-1.70;99.90;;;;;;5031949;28;20275;-74
2021/12/21 05:40:15;;;;;;;12.15;7.93;;;-1.70;99.90;;;;;;5031622;28;20293;-74
2021/12/21 05:42:44;;;;;;;10.38;7.55;;;-1.80;99.90;;;;;;5031548;28;20198;-73
2021/12/21 05:45:14;;;;;;;14.40;8.50;;;-1.90;99.90;;;;;;5035006;28;20636;-74
2021/12/21 05:47:41;;;;;;;11.20;7.90;;;-1.90;99.90;;;;;;5027109;28;20222;-74
2021/12/21 05:50:12;;;;;;;9.25;8.00;;;-2.00;99.90;;;;;;5063091;22;20233;-74
2021/12/21 05:52:40;;;;;;;11.82;8.88;;;-2.00;99.90;;;;;;5012233;28;20286;-75
2021/12/21 05:55:08;;;;;;;12.45;8.85;;;-2.00;99.90;;;;;;5031626;28;20198;-75
2021/12/21 05:57:35;;;;;;;13.15;8.02;;;-2.00;99.90;;;;;;5027880;28;20305;-75
2021/12/21 06:00:06;;;;;;;12.40;8.80;;;-2.00;99.90;;;;;;5010769;28;20562;-75
2021/12/21 06:02:33;;;;;;;17.17;8.85;;;-2.00;99.90;;;;;;5007676;28;20195;-76
2021/12/21 06:04:59;;;;;;;13.48;9.18;;;-2.00;99.90;;;;;;4998554;28;20294;-77
2021/12/21 06:07:27;;;;;;;14.40;8.20;;;-2.00;99.90;;;;;;5002969;28;20558;-76
2021/12/21 06:09:53;;;;;;;13.57;7.93;;;-2.00;99.90;;;;;;5010619;28;20707;-76
2021/12/21 06:12:36;;;;;;;12.00;9.32;;;-2.00;99.90;;;;;;5008064;28;20286;-75
2021/12/21 06:15:24;;;;;;;12.68;8.10;;;-2.00;99.90;;;;;;5006758;28;20196;-76
2021/12/21 06:23:45;;;;;;;13.90;9.00;;;-2.00;99.90;;;;;;5005263;28;20234;-76
2021/12/21 06:26:13;;;;;;;11.82;8.85;;;-2.00;99.90;;;;;;5003997;28;20260;-76
2021/12/21 06:28:41;;;;;;;13.13;8.35;;;-2.00;99.90;;;;;;5009347;28;20578;-74
2021/12/21 06:31:10;;;;;;;10.23;7.07;;;-2.00;99.90;;;;;;5010608;28;20238;-75
2021/12/21 06:33:37;;;;;;;12.60;7.57;;;-2.00;99.90;;;;;;5010947;28;20657;-76
2021/12/21 06:36:07;;;;;;;14.00;8.98;;;-2.00;99.90;;;;;;5009429;28;20205;-77
2021/12/21 06:38:34;;;;;;;12.43;7.90;;;-2.10;99.90;;;;;;5008623;28;20234;-75
2021/12/21 06:41:02;;;;;;;12.57;8.73;;;-2.10;99.90;;;;;;5007731;28;20201;-75
2021/12/21 06:43:29;;;;;;;9.90;8.82;;;-2.10;99.90;;;;;;5008913;28;20290;-76
2021/12/21 06:46:04;;;;;;;13.60;8.88;;;-2.10;99.90;;;;;;5005473;28;20665;-76
2021/12/21 06:51:23;;;;;;;11.25;8.70;;;-2.10;99.90;;;;;;5007928;28;20228;-76
2021/12/21 06:53:52;;;;;;;13.13;9.05;;;-2.20;99.90;;;;;;5003007;28;20206;-76
2021/12/21 06:56:20;;;;;;;10.75;9.60;;;-2.20;99.90;;;;;;5010479;28;20217;-78
2021/12/21 06:58:48;;;;;;;13.15;8.65;;;-2.10;99.90;;;;;;5009779;28;20230;-76
2021/12/21 07:01:16;;;;;;;12.30;8.63;;;-2.10;99.90;;;;;;5008641;28;20205;-76
2021/12/21 07:03:45;;;;;;;9.73;8.73;;;-2.10;99.90;;;;;;5010298;28;20688;-73
2021/12/21 07:06:13;;;;;;;10.38;8.23;;;-2.10;99.90;;;;;;5011111;28;20202;-76
2021/12/21 07:08:46;;;;;;;10.18;8.55;;;-2.00;99.90;;;;;;5009952;28;20244;-75
2021/12/21 07:11:19;;;;;;;9.98;8.00;;;-2.00;99.90;;;;;;5003940;28;20203;-78
2021/12/21 07:19:17;;;;;;;15.50;8.43;;;-1.90;99.90;;;;;;5005783;28;20677;-76
2021/12/21 07:21:44;;;;;;;11.48;8.50;;;-1.80;99.90;;;;;;5003605;28;20191;-76
2021/12/21 07:24:12;;;;;;;12.63;8.65;;;-1.70;99.90;;;;;;5007817;28;20206;-75
2021/12/21 07:26:39;;;;;;;10.35;8.73;;;-1.70;99.90;;;;;;5009081;28;20199;-75
2021/12/21 07:29:06;;;;;;;11.90;9.05;;;-1.60;99.90;;;;;;5003997;28;20221;-75
2021/12/21 07:31:35;;;;;;;9.25;8.32;;;-1.60;99.90;;;;;;5003889;28;20226;-75
2021/12/21 07:34:03;;;;;;;9.05;7.90;;;-1.50;99.90;;;;;;5007246;28;20195;-74
2021/12/21 07:36:32;;;;;;;10.93;8.50;;;-1.40;99.90;;;;;;5007671;28;20215;-74
2021/12/21 07:38:59;;;;;;;9.45;8.05;;;-1.40;99.90;;;;;;5003365;28;20226;-75
2021/12/21 07:41:27;;;;;;;9.90;8.07;;;-1.30;99.90;;;;;;5008914;28;20198;-80
2021/12/21 07:43:54;;;;;;;12.70;8.23;;;-1.20;99.90;;;;;;4989764;28;20245;-74
2021/12/21 07:46:21;;;;;;;10.07;7.75;;;-1.20;99.90;;;;;;5006562;28;20294;-74
2021/12/21 07:48:48;;;;;;;9.93;7.55;;;-1.10;99.90;;;;;;5004774;28;20292;-75
2021/12/21 07:51:15;;;;;;;13.73;8.82;;;-1.00;99.90;;;;;;5016723;28;20201;-74
2021/12/21 07:53:44;;;;;;;9.63;7.25;;;-1.00;99.90;;;;;;5013948;28;20202;-75
2021/12/21 07:56:13;;;;;;;11.25;7.90;;;-0.90;99.90;;;;;;5008155;28;20285;-75
2021/12/21 07:58:41;;;;;;;7.85;6.90;;;-0.90;99.90;;;;;;5012910;28;20685;-74
2021/12/21 08:01:08;;;;;;;9.27;7.90;;;-0.80;99.90;;;;;;5007098;28;21106;-74
2021/12/21 08:03:36;;;;;;;10.40;7.40;;;-0.70;99.90;;;;;;4998487;28;20194;-75
2021/12/21 08:06:05;;;;;;;10.88;7.80;;;-0.70;99.90;;;;;;5003316;28;20563;-75
2021/12/21 08:08:34;;;;;;;10.75;7.28;;;-0.60;99.90;;;;;;5006114;28;20217;-75
2021/12/21 08:11:16;;;;;;;9.30;7.90;;;-0.60;99.90;;;;;;5004433;28;20214;-75
2021/12/21 08:13:47;;;;;;;10.45;7.65;;;-0.50;99.90;;;;;;5005402;28;20634;-74
2021/12/21 08:16:15;;;;;;;9.63;7.72;;;-0.40;99.90;;;;;;5006782;28;20321;-73
2021/12/21 08:18:42;;;;;;;14.05;7.85;;;-0.30;99.90;;;;;;5007031;28;21112;-74
2021/12/21 08:21:09;;;;;;;8.68;7.53;;;-0.20;99.90;;;;;;5006250;28;20206;-73
2021/12/21 08:23:36;;;;;;;7.40;6.70;;;-0.10;99.90;;;;;;5012885;28;20198;-73
2021/12/21 08:26:06;;;;;;;8.82;7.22;;;0.00;99.90;;;;;;5007702;28;20203;-74
2021/12/21 08:28:33;;;;;;;10.10;7.45;;;0.10;99.90;;;;;;5008222;28;20577;-73
2021/12/21 08:31:00;;;;;;;7.63;6.70;;;0.20;99.90;;;;;;5006489;28;20213;-73
2021/12/21 08:33:27;;;;;;;9.13;6.43;;;0.20;99.90;;;;;;5003563;28;20210;-74
2021/12/21 08:35:54;;;;;;;8.30;7.35;;;0.30;99.90;;;;;;5004625;28;20219;-73
2021/12/21 08:38:21;;;;;;;8.45;7.10;;;0.40;99.90;;;;;;5006213;28;20272;-73
2021/12/21 08:40:50;;;;;;;9.80;7.20;;;0.50;99.90;;;;;;5004962;28;20203;-74
2021/12/21 08:43:23;;;;;;;8.65;6.95;;;0.60;99.90;;;;;;5006155;28;20203;-74
2021/12/21 08:45:52;;;;;;;8.70;7.25;;;0.70;99.90;;;;;;5009193;28;20289;-74
2021/12/21 08:48:20;;;;;;;7.75;6.95;;;0.80;99.90;;;;;;5009712;28;20372;-73
2021/12/21 08:50:50;;;;;;;7.90;6.97;;;0.90;99.90;;;;;;5004994;28;20198;-74
2021/12/21 08:53:18;;;;;;;7.28;6.57;;;1.00;99.90;;;;;;5011507;28;20199;-72
2021/12/21 08:55:45;;;;;;;8.15;5.93;;;1.00;99.90;;;;;;5006411;28;20200;-74
2021/12/21 08:58:13;;;;;;;9.10;6.45;;;1.20;99.90;;;;;;5011040;28;20301;-75
2021/12/21 09:00:42;;;;;;;7.15;5.45;;;2.10;99.90;;;;;;5004677;28;20205;-75
2021/12/21 09:03:10;;;;;;;6.53;5.90;;;3.30;99.90;;;;;;5010570;28;20198;-75
2021/12/21 09:05:38;;;;;;;8.88;5.45;;;4.60;99.90;;;;;;5010083;28;20194;-74
2021/12/21 09:08:06;;;;;;;7.60;5.03;;;5.70;99.90;;;;;;5006699;28;20214;-75
2021/12/21 09:10:34;;;;;;;11.68;5.40;;;6.70;99.90;;;;;;5011040;28;20210;-75
2021/12/21 09:13:02;;;;;;;6.10;5.50;;;7.70;99.90;;;;;;5011630;28;20198;-75
2021/12/21 09:15:31;;;;;;;5.97;5.30;;;8.40;99.90;;;;;;5012371;28;20305;-75
2021/12/21 09:17:59;;;;;;;6.22;5.63;;;9.00;99.90;;;;;;5007462;28;20649;-74
2021/12/21 09:20:29;;;;;;;5.63;4.82;;;9.60;99.70;;;;;;5010208;28;20716;-74
2021/12/21 09:22:57;;;;;;;5.20;4.70;;;9.80;98.00;;;;;;5012176;28;20289;-75
2021/12/21 09:25:25;;;;;;;5.55;4.97;;;10.00;96.00;;;;;;5009702;28;20696;-75
2021/12/21 09:27:52;;;;;;;5.30;4.80;;;10.10;95.00;;;;;;5009203;28;20230;-74
2021/12/21 09:30:22;;;;;;;5.13;4.65;;;10.20;94.30;;;;;;5009954;28;20203;-74
2021/12/21 09:32:51;;;;;;;5.13;4.00;;;10.60;94.00;;;;;;5002468;28;20206;-74
2021/12/21 09:35:19;;;;;;;7.20;4.97;;;10.90;92.90;;;;;;5008240;28;20203;-74
2021/12/21 09:37:46;;;;;;;6.82;4.53;;;11.30;90.10;;;;;;5010216;28;20212;-74
2021/12/21 09:40:21;;;;;;;6.68;6.13;;;10.60;86.90;;;;;;5010918;28;20317;-74
2021/12/21 09:42:49;;;;;;;4.07;3.55;;;10.20;90.00;;;;;;5010852;28;20248;-74
2021/12/21 09:45:16;;;;;;;4.78;4.28;;;10.30;90.40;;;;;;5010930;28;20569;-74
2021/12/21 09:47:43;;;;;;;5.07;4.25;;;10.40;90.10;;;;;;5009415;28;20689;-75
2021/12/21 09:50:14;;;;;;;4.95;4.20;;;10.80;88.60;;;;;;5007507;28;20285;-74
2021/12/21 09:52:42;;;;;;;4.50;4.10;;;10.90;87.10;;;;;;5007471;28;20301;-75
2021/12/21 09:55:11;;;;;;;4.57;4.10;;;11.10;86.10;;;;;;5001086;28;20215;-75
2021/12/21 09:57:38;;;;;;;4.97;4.50;;;11.50;85.70;;;;;;5009739;28;20561;-73
2021/12/21 10:00:08;;;;;;;5.38;4.35;;;12.00;85.80;;;;;;5010490;28;20222;-75
2021/12/21 10:02:35;;;;;;;5.85;4.75;;;12.20;84.00;;;;;;5010128;28;20194;-75
2021/12/21 10:05:07;;;;;;;5.68;4.70;;;12.50;84.40;;;;;;5012582;28;20199;-75
2021/12/21 10:07:34;;;;;;;5.25;4.35;;;12.70;83.10;;;;;;5009226;28;20703;-75
2021/12/21 10:10:09;;;;;;;5.50;4.40;;;12.80;81.50;;;;;;5005323;28;20202;-73
2021/12/21 10:12:38;;;;;;;5.82;4.30;;;12.70;79.60;;;;;;5013722;28;20296;-75
2021/12/21 10:15:08;;;;;;;5.10;4.60;;;12.70;79.40;;;;;;5011921;28;20190;-75
2021/12/21 10:17:35;;;;;;;5.68;4.55;;;12.80;80.10;;;;;;5012800;28;20228;-75
2021/12/21 10:20:04;;;;;;;5.00;4.22;;;12.80;79.30;;;;;;5013159;28;20317;-75
2021/12/21 10:22:31;;;;;;;4.30;3.90;;;13.10;80.20;;;;;;5013350;28;20206;-74
2021/12/21 10:24:58;;;;;;;4.30;3.90;;;13.30;78.00;;;;;;5012496;28;20203;-75
2021/12/21 10:27:27;;;;;;;4.05;3.70;;;13.80;76.90;;;;;;4995409;28;20214;-75
2021/12/21 10:29:57;;;;;;;4.25;3.80;;;14.30;74.50;;;;;;5015953;28;20657;-75
2021/12/21 10:32:27;;;;;;;6.32;4.43;;;14.60;72.60;;;;;;5008142;28;20191;-75
2021/12/21 10:34:57;;;;;;;5.15;4.40;;;14.60;70.60;;;;;;5012958;28;20260;-75
2021/12/21 10:37:27;;;;;;;6.20;4.55;;;14.70;70.50;;;;;;5012875;28;20221;-75
2021/12/21 10:40:16;;;;;;;4.28;3.90;;;14.30;68.30;;;;;;5009104;28;20627;-75
2021/12/21 10:43:04;;;;;;;5.18;4.28;;;14.00;66.90;;;;;;5012720;28;20194;-75
2021/12/21 10:45:34;;;;;;;5.28;4.38;;;13.40;70.40;;;;;;5011711;28;20277;-74
2021/12/21 10:48:03;;;;;;;4.90;4.40;;;13.60;69.70;;;;;;5002875;28;20321;-75
2021/12/21 10:50:33;;;;;;;5.90;4.40;;;13.90;69.60;;;;;;5007014;28;20237;-75
2021/12/21 10:53:02;;;;;;;5.10;3.65;;;14.10;69.00;;;;;;5012090;28;20462;-75
2021/12/21 10:55:33;;;;;;;4.10;3.70;;;14.40;67.10;;;;;;5003864;28;20308;-75
2021/12/21 10:58:19;;;;;;;4.07;3.70;;;14.50;67.30;;;;;;5003864;28;20194;-74
2021/12/21 11:00:51;;;;;;;3.70;3.10;;;14.50;67.30;;;;;;5005595;28;20325;-75
2021/12/21 11:03:28;;;;;;;3.97;3.67;;;13.80;66.20;;;;;;4994240;28;20278;-75
2021/12/21 11:05:55;;;;;;;3.88;3.58;;;13.80;67.70;;;;;;5011103;28;20218;-75
2021/12/21 11:08:24;;;;;;;5.47;4.70;;;14.10;65.60;;;;;;5008436;28;20202;-75
2021/12/21 11:10:56;;;;;;;4.57;4.18;;;14.00;66.50;;;;;;5008963;28;20269;-75
2021/12/21 11:13:25;;;;;;;4.90;4.40;;;13.60;66.80;;;;;;5010421;28;20201;-75
2021/12/21 11:15:56;;;;;;;4.32;3.90;;;13.20;67.80;;;;;;4998250;28;20226;-75
2021/12/21 11:18:25;;;;;;;5.70;4.28;;;13.00;68.60;;;;;;5002121;28;20275;-75
2021/12/21 11:20:54;;;;;;;3.75;3.35;;;13.00;68.60;;;;;;5011182;28;20325;-74
2021/12/21 11:23:23;;;;;;;3.70;3.30;;;13.10;67.30;;;;;;5005876;28;20199;-75
2021/12/21 11:25:53;;;;;;;3.13;2.92;;;13.10;67.40;;;;;;5010690;28;20717;-75
2021/12/21 11:28:25;;;;;;;4.25;3.17;;;13.00;67.90;;;;;;5009911;28;20199;-75
2021/12/21 11:30:54;;;;;;;3.30;2.95;;;13.10;67.70;;;;;;5003545;28;20256;-75
2021/12/21 11:33:22;;;;;;;2.97;2.65;;;13.20;65.70;;;;;;5010615;28;20202;-75
2021/12/21 11:38:35;;;;;;;3.70;3.38;;;12.70;66.50;;;;;;5004470;28;20195;-75
2021/12/21 11:41:04;;;;;;;5.30;3.70;;;12.60;68.10;;;;;;5027652;28;20226;-75
2021/12/21 11:43:40;;;;;;;4.55;3.47;;;12.80;67.50;;;;;;5010048;28;20199;-75
2021/12/21 11:46:12;;;;;;;4.63;3.55;;;13.40;67.00;;;;;;5007759;28;20764;-75
2021/12/21 11:48:47;;;;;;;5.38;3.28;;;13.40;66.30;;;;;;5014313;28;20281;-75
2021/12/21 11:51:15;;;;;;;3.78;3.40;;;13.70;65.50;;;;;;5011939;28;20252;-75
2021/12/21 11:53:42;;;;;;;3.92;3.20;;;14.00;65.10;;;;;;5012340;28;20198;-75
2021/12/21 11:56:17;;;;;;;3.72;2.95;;;14.10;65.10;;;;;;5023627;28;20210;-75
2021/12/21 11:58:45;;;;;;;3.72;3.20;;;14.00;62.50;;;;;;5023885;28;20190;-75
2021/12/21 12:01:16;;;;;;;4.25;2.83;;;12.80;64.50;;;;;;5013198;28;20711;-74
2021/12/21 12:03:55;;;;;;;4.45;3.22;;;13.00;65.90;;;;;;5019835;28;20216;-76
2021/12/21 12:06:24;;;;;;;3.60;3.22;;;13.30;66.30;;;;;;5005508;28;20195;-76
2021/12/21 12:08:55;;;;;;;4.40;3.45;;;13.60;66.00;;;;;;4998110;28;20720;-76
2021/12/21 12:11:25;;;;;;;5.20;3.50;;;14.00;65.10;;;;;;5010730;28;20190;-75
2021/12/21 12:14:04;;;;;;;4.20;3.40;;;14.30;64.10;;;;;;5008954;28;20309;-76
2021/12/21 12:16:41;;;;;;;3.33;2.90;;;14.50;64.00;;;;;;5006984;28;20198;-76
2021/12/21 12:19:14;;;;;;;4.03;3.35;;;14.80;64.70;;;;;;5012535;28;20453;-75
2021/12/21 12:21:54;;;;;;;5.07;3.80;;;15.10;63.80;;;;;;5028857;28;20201;-76
2021/12/21 12:24:22;;;;;;;4.90;3.57;;;15.10;63.20;;;;;;5007745;28;20487;-75
2021/12/21 12:26:58;;;;;;;3.73;3.10;;;15.20;62.50;;;;;;5015501;28;20520;-73
2021/12/21 12:29:26;;;;;;;3.72;3.40;;;15.10;61.80;;;;;;4997651;28;20473;-75
2021/12/21 12:32:04;;;;;;;3.83;3.42;;;14.60;60.00;;;;;;5005896;28;20290;-76
2021/12/21 12:34:34;;;;;;;3.78;3.40;;;13.70;63.30;;;;;;5008505;28;20343;-76
2021/12/21 12:37:14;;;;;;;4.00;3.65;;;13.40;63.20;;;;;;5011024;28;20256;-75
2021/12/21 12:39:44;;;;;;;5.00;3.25;;;12.80;65.30;;;;;;5006554;28;20233;-76
2021/12/21 12:42:13;;;;;;;4.50;3.20;;;12.80;65.60;;;;;;5007035;28;20291;-75
2021/12/21 12:44:45;;;;;;;3.80;3.30;;;13.00;66.10;;;;;;5010018;28;20201;-75
2021/12/21 12:47:15;;;;;;;4.10;3.10;;;12.90;65.20;;;;;;5004255;28;20217;-75
2021/12/21 12:49:49;;;;;;;3.28;2.97;;;12.90;65.80;;;;;;5008942;28;21051;-77
2021/12/21 12:52:17;;;;;;;3.45;3.15;;;13.20;65.50;;;;;;5011423;28;20654;-76
2021/12/21 12:54:47;;;;;;;4.30;3.67;;;13.20;64.90;;;;;;5001435;28;20234;-76
2021/12/21 12:57:28;;;;;;;3.00;2.80;;;13.20;65.20;;;;;;5010739;28;20538;-79
2021/12/21 12:59:58;;;;;;;4.25;3.40;;;13.30;65.50;;;;;;5004094;28;20743;-76
2021/12/21 13:02:26;;;;;;;3.72;3.33;;;13.60;65.10;;;;;;5013472;28;20249;-76
2021/12/21 13:04:53;;;;;;;5.10;3.72;;;13.80;64.80;;;;;;5009984;28;20248;-76
2021/12/21 13:07:25;;;;;;;3.60;3.30;;;13.60;62.70;;;;;;5009313;28;20644;-73
2021/12/21 13:10:01;;;;;;;3.25;2.90;;;13.60;66.80;;;;;;5010497;28;20214;-77
2021/12/21 13:12:28;;;;;;;4.13;3.15;;;13.60;67.90;;;;;;5014535;28;20633;-77
2021/12/21 13:14:57;;;;;;;3.50;3.20;;;13.40;64.60;;;;;;5019335;28;20293;-76
2021/12/21 13:17:23;;;;;;;5.07;3.40;;;13.10;66.00;;;;;;5014495;28;20217;-77
2021/12/21 13:19:50;;;;;;;3.65;2.92;;;13.10;65.20;;;;;;5013447;28;20195;-77
2021/12/21 13:22:22;;;;;;;4.93;3.15;;;13.20;65.40;;;;;;5027763;28;20648;-77
2021/12/21 13:24:51;;;;;;;3.72;3.33;;;13.20;64.20;;;;;;5009938;28;20214;-75
2021/12/21 13:27:20;;;;;;;3.55;3.10;;;12.40;65.10;;;;;;5007952;28;20327;-77